createdAt,value
2022-12-28T00:00:24.448Z,-0.58
2022-12-28T00:01:24.305Z,-0.60
2022-12-28T00:02:24.370Z,-0.56
2022-12-28T00:03:24.320Z,-0.53
2022-12-28T00:04:24.267Z,-0.56
2022-12-28T00:05:24.463Z,-0.52
2022-12-28T00:06:24.226Z,-0.49
2022-12-28T00:07:24.217Z,-0.58
2022-12-28T00:08:24.208Z,-0.59
2022-12-28T00:09:24.187Z,-0.49
2022-12-28T00:11:08.392Z,-0.55
2022-12-28T00:11:27.663Z,-0.49
2022-12-28T00:12:25.163Z,-0.44
2022-12-28T00:13:24.131Z,-0.55
2022-12-28T00:14:24.117Z,-0.49
2022-12-28T00:15:24.115Z,-0.59
2022-12-28T00:16:24.156Z,-0.52
2022-12-28T00:17:24.080Z,-0.47
2022-12-28T00:18:24.074Z,-0.49
2022-12-28T00:19:24.071Z,-0.55
2022-12-28T00:20:24.036Z,-0.63
2022-12-28T00:21:24.067Z,-0.59
2022-12-28T00:22:24.023Z,-0.60
2022-12-28T00:23:24.002Z,-0.56
2022-12-28T00:24:23.990Z,-0.55
2022-12-28T00:25:23.971Z,-0.56
2022-12-28T00:26:23.974Z,-0.59
2022-12-28T00:27:23.952Z,-0.42
2022-12-28T00:28:23.934Z,-0.38
2022-12-28T00:29:23.927Z,-0.58
2022-12-28T00:30:23.911Z,-0.55
2022-12-28T00:31:23.911Z,-0.55
2022-12-28T00:32:23.880Z,-0.49
2022-12-28T00:33:23.871Z,-0.50
2022-12-28T00:34:23.857Z,-0.53
2022-12-28T00:35:23.842Z,-0.53
2022-12-28T00:36:23.843Z,-0.55
2022-12-28T00:37:23.874Z,-0.55
2022-12-28T00:38:23.803Z,-0.45
2022-12-28T00:39:23.799Z,-0.52
2022-12-28T00:40:24.349Z,-0.55
2022-12-28T00:41:23.771Z,-0.55
2022-12-28T00:42:23.751Z,-0.58
2022-12-28T00:43:23.744Z,-0.52
2022-12-28T00:44:23.739Z,-0.59
2022-12-28T00:45:23.774Z,-0.55
2022-12-28T00:46:23.700Z,-0.60
2022-12-28T00:47:23.683Z,-0.56
2022-12-28T00:48:23.675Z,-0.52
2022-12-28T00:49:23.667Z,-0.52
2022-12-28T00:50:23.654Z,-0.47
2022-12-28T00:51:23.649Z,-0.50
2022-12-28T00:52:23.623Z,-0.52
2022-12-28T00:53:23.639Z,-0.53
2022-12-28T00:54:23.593Z,-0.56
2022-12-28T00:55:23.581Z,-0.45
2022-12-28T00:56:23.565Z,-0.41
2022-12-28T00:57:23.553Z,-0.44
2022-12-28T00:58:23.544Z,-0.41
2022-12-28T00:59:23.528Z,-0.45
2022-12-28T01:00:23.566Z,-0.42
2022-12-28T01:01:23.573Z,-0.39
2022-12-28T01:02:23.493Z,-0.35
2022-12-28T01:03:23.475Z,-0.38
2022-12-28T01:04:23.462Z,-0.41
2022-12-28T01:05:23.450Z,-0.55
2022-12-28T01:06:23.440Z,-0.35
2022-12-28T01:07:23.424Z,-0.44
2022-12-28T01:08:23.411Z,-0.39
2022-12-28T01:09:23.439Z,-0.50
2022-12-28T01:10:23.590Z,-0.45
2022-12-28T01:11:23.372Z,-0.41
2022-12-28T01:12:23.361Z,-0.53
2022-12-28T01:13:23.349Z,-0.38
2022-12-28T01:14:23.332Z,-0.41
2022-12-28T01:15:23.322Z,-0.39
2022-12-28T01:16:23.385Z,-0.34
2022-12-28T01:17:23.291Z,-0.42
2022-12-28T01:18:23.279Z,-0.39
2022-12-28T01:19:23.277Z,-0.44
2022-12-28T01:20:23.252Z,-0.42
2022-12-28T01:21:23.247Z,-0.39
2022-12-28T01:22:23.231Z,-0.44
2022-12-28T01:23:23.212Z,-0.41
2022-12-28T01:24:23.196Z,-0.32
2022-12-28T01:25:23.209Z,-0.32
2022-12-28T01:26:23.179Z,-0.44
2022-12-28T01:27:23.169Z,-0.38
2022-12-28T01:28:23.145Z,-0.38
2022-12-28T01:29:23.137Z,-0.34
2022-12-28T01:30:23.137Z,-0.41
2022-12-28T01:31:23.205Z,-0.37
2022-12-28T01:32:23.105Z,-0.34
2022-12-28T01:33:23.084Z,-0.31
2022-12-28T01:34:23.067Z,-0.27
2022-12-28T01:35:23.058Z,-0.32
2022-12-28T01:36:23.049Z,-0.34
2022-12-28T01:37:23.031Z,-0.24
2022-12-28T01:38:23.023Z,-0.19
2022-12-28T01:39:23.004Z,-0.35
2022-12-28T01:40:22.995Z,-0.32
2022-12-28T01:41:22.997Z,-0.24
2022-12-28T01:42:22.974Z,-0.27
2022-12-28T01:43:29.365Z,-0.35
2022-12-28T01:44:22.936Z,-0.23
2022-12-28T01:45:22.926Z,-0.23
2022-12-28T01:46:22.912Z,-0.24
2022-12-28T01:47:22.899Z,-0.21
2022-12-28T01:48:22.895Z,-0.31
2022-12-28T01:49:22.878Z,-0.24
2022-12-28T01:50:22.864Z,-0.16
2022-12-28T01:51:22.854Z,-0.35
2022-12-28T01:52:22.836Z,-0.26
2022-12-28T01:53:22.814Z,-0.26
2022-12-28T01:54:22.813Z,-0.32
2022-12-28T01:55:22.807Z,-0.30
2022-12-28T01:56:22.780Z,-0.26
2022-12-28T01:57:22.798Z,-0.27
2022-12-28T01:58:22.761Z,-0.20
2022-12-28T01:59:22.756Z,-0.23
2022-12-28T02:00:22.734Z,-0.21
2022-12-28T02:01:22.847Z,-0.19
2022-12-28T02:02:22.921Z,-0.26
2022-12-28T02:03:22.869Z,-0.23
2022-12-28T02:04:22.683Z,-0.27
2022-12-28T02:05:22.667Z,-0.34
2022-12-28T02:06:22.655Z,-0.20
2022-12-28T02:07:22.633Z,-0.23
2022-12-28T02:08:22.621Z,-0.24
2022-12-28T02:09:22.607Z,-0.23
2022-12-28T02:10:42.474Z,-0.23
2022-12-28T02:11:22.582Z,-0.20
2022-12-28T02:12:22.572Z,-0.24
2022-12-28T02:13:22.578Z,-0.17
2022-12-28T02:14:22.541Z,-0.31
2022-12-28T02:15:23.392Z,-0.27
2022-12-28T02:16:22.577Z,-0.20
2022-12-28T02:17:22.502Z,-0.31
2022-12-28T02:18:22.496Z,-0.24
2022-12-28T02:19:22.488Z,-0.27
2022-12-28T02:20:22.467Z,-0.21
2022-12-28T02:21:22.472Z,-0.14
2022-12-28T02:22:22.436Z,-0.24
2022-12-28T02:23:22.425Z,-0.20
2022-12-28T02:24:22.430Z,-0.17
2022-12-28T02:25:22.398Z,-0.17
2022-12-28T02:26:22.383Z,-0.21
2022-12-28T02:27:22.389Z,-0.21
2022-12-28T02:28:22.362Z,-0.16
2022-12-28T02:29:22.368Z,-0.21
2022-12-28T02:30:22.332Z,-0.14
2022-12-28T02:31:22.315Z,-0.17
2022-12-28T02:32:22.311Z,-0.20
2022-12-28T02:33:22.294Z,-0.23
2022-12-28T02:34:22.338Z,-0.09
2022-12-28T02:35:22.262Z,-0.16
2022-12-28T02:36:22.250Z,-0.20
2022-12-28T02:37:22.254Z,-0.19
2022-12-28T02:38:22.229Z,-0.17
2022-12-28T02:39:22.210Z,-0.20
2022-12-28T02:40:22.204Z,-0.16
2022-12-28T02:41:22.186Z,-0.13
2022-12-28T02:42:22.177Z,-0.21
2022-12-28T02:43:22.157Z,-0.17
2022-12-28T02:44:22.149Z,-0.14
2022-12-28T02:45:22.161Z,-0.23
2022-12-28T02:46:22.140Z,-0.30
2022-12-28T02:47:22.104Z,-0.21
2022-12-28T02:48:22.095Z,-0.13
2022-12-28T02:49:22.077Z,-0.13
2022-12-28T02:50:22.069Z,-0.09
2022-12-28T02:51:22.049Z,-0.12
2022-12-28T02:52:22.038Z,-0.16
2022-12-28T02:53:22.029Z,-0.08
2022-12-28T02:54:22.014Z,-0.01
2022-12-28T02:55:22.000Z,-0.14
2022-12-28T02:56:21.999Z,-0.05
2022-12-28T02:57:22.005Z,-0.01
2022-12-28T02:58:21.965Z,-0.01
2022-12-28T02:59:21.961Z,0.01
2022-12-28T03:00:21.939Z,0.01
2022-12-28T03:01:22.031Z,-0.02
2022-12-28T03:02:22.088Z,-0.05
2022-12-28T03:03:22.017Z,0.07
2022-12-28T03:04:21.882Z,0.02
2022-12-28T03:05:21.867Z,0.10
2022-12-28T03:06:26.927Z,0.07
2022-12-28T03:07:22.872Z,0.12
2022-12-28T03:08:21.830Z,0.04
2022-12-28T03:09:21.821Z,0.15
2022-12-28T03:10:21.800Z,0.15
2022-12-28T03:11:21.788Z,0.19
2022-12-28T03:12:21.774Z,0.13
2022-12-28T03:13:21.772Z,0.12
2022-12-28T03:14:21.754Z,0.08
2022-12-28T03:15:21.736Z,0.12
2022-12-28T03:16:21.829Z,0.25
2022-12-28T03:17:21.729Z,0.16
2022-12-28T03:18:21.694Z,0.04
2022-12-28T03:19:21.686Z,0.19
2022-12-28T03:20:21.676Z,0.20
2022-12-28T03:21:21.667Z,0.15
2022-12-28T03:22:21.639Z,0.13
2022-12-28T03:23:21.631Z,0.10
2022-12-28T03:24:21.635Z,0.19
2022-12-28T03:25:21.602Z,0.17
2022-12-28T03:26:21.608Z,0.07
2022-12-28T03:27:21.584Z,0.23
2022-12-28T03:28:21.560Z,0.13
2022-12-28T03:29:21.564Z,0.20
2022-12-28T03:30:21.547Z,0.13
2022-12-28T03:31:21.539Z,0.17
2022-12-28T03:32:21.507Z,0.20
2022-12-28T03:33:21.523Z,0.20
2022-12-28T03:34:21.486Z,0.17
2022-12-28T03:35:21.468Z,0.30
2022-12-28T03:36:21.453Z,0.16
2022-12-28T03:37:21.442Z,0.20
2022-12-28T03:38:21.429Z,0.22
2022-12-28T03:39:21.418Z,0.22
2022-12-28T03:40:21.603Z,0.20
2022-12-28T03:41:21.390Z,0.28
2022-12-28T03:42:21.383Z,0.15
2022-12-28T03:43:21.365Z,0.30
2022-12-28T03:44:21.349Z,0.25
2022-12-28T03:45:46.753Z,0.23
2022-12-28T03:46:22.432Z,0.30
2022-12-28T03:47:21.308Z,0.25
2022-12-28T03:48:21.310Z,0.28
2022-12-28T03:49:21.309Z,0.25
2022-12-28T03:50:21.283Z,0.22
2022-12-28T03:51:21.256Z,0.16
2022-12-28T03:52:21.250Z,0.28
2022-12-28T03:53:21.241Z,0.20
2022-12-28T03:54:21.221Z,0.30
2022-12-28T03:55:21.212Z,0.16
2022-12-28T03:56:21.195Z,0.25
2022-12-28T03:57:21.175Z,0.33
2022-12-28T03:58:21.173Z,0.25
2022-12-28T03:59:21.151Z,0.20
2022-12-28T04:00:21.146Z,0.25
2022-12-28T04:01:21.224Z,0.31
2022-12-28T04:02:21.393Z,0.22
2022-12-28T04:03:21.234Z,0.25
2022-12-28T04:04:21.091Z,0.16
2022-12-28T04:05:21.096Z,0.20
2022-12-28T04:06:21.082Z,0.22
2022-12-28T04:07:21.047Z,0.20
2022-12-28T04:08:21.035Z,0.25
2022-12-28T04:09:21.023Z,0.16
2022-12-28T04:10:21.041Z,0.23
2022-12-28T04:11:20.994Z,0.16
2022-12-28T04:12:20.980Z,0.23
2022-12-28T04:13:20.967Z,0.25
2022-12-28T04:14:20.950Z,0.28
2022-12-28T04:15:20.940Z,0.25
2022-12-28T04:16:20.991Z,0.22
2022-12-28T04:17:20.913Z,0.20
2022-12-28T04:18:20.907Z,0.23
2022-12-28T04:19:20.888Z,0.22
2022-12-28T04:20:20.872Z,0.23
2022-12-28T04:21:20.888Z,0.20
2022-12-28T04:22:20.848Z,0.20
2022-12-28T04:23:20.831Z,0.28
2022-12-28T04:24:20.823Z,0.26
2022-12-28T04:25:20.812Z,0.19
2022-12-28T04:26:20.809Z,0.26
2022-12-28T04:27:20.783Z,0.23
2022-12-28T04:28:20.764Z,0.33
2022-12-28T04:29:20.749Z,0.28
2022-12-28T04:30:20.740Z,0.30
2022-12-28T04:31:20.817Z,0.35
2022-12-28T04:32:20.724Z,0.25
2022-12-28T04:33:20.700Z,0.16
2022-12-28T04:34:20.686Z,0.31
2022-12-28T04:35:20.673Z,0.19
2022-12-28T04:36:20.662Z,0.33
2022-12-28T04:37:20.672Z,0.28
2022-12-28T04:38:20.639Z,0.41
2022-12-28T04:39:20.625Z,0.28
2022-12-28T04:40:20.608Z,0.26
2022-12-28T04:41:20.592Z,0.34
2022-12-28T04:42:20.581Z,0.30
2022-12-28T04:43:20.571Z,0.35
2022-12-28T04:44:20.553Z,0.28
2022-12-28T04:45:22.397Z,0.28
2022-12-28T04:46:20.566Z,0.33
2022-12-28T04:47:20.517Z,0.34
2022-12-28T04:48:20.500Z,0.25
2022-12-28T04:49:20.489Z,0.28
2022-12-28T04:50:20.477Z,0.17
2022-12-28T04:51:20.460Z,0.23
2022-12-28T04:52:20.449Z,0.28
2022-12-28T04:53:20.458Z,0.26
2022-12-28T04:54:20.421Z,0.30
2022-12-28T04:55:32.903Z,0.26
2022-12-28T04:56:21.421Z,0.26
2022-12-28T04:57:20.380Z,0.26
2022-12-28T04:58:20.369Z,0.33
2022-12-28T04:59:20.354Z,0.25
2022-12-28T05:00:20.340Z,0.31
2022-12-28T05:01:20.470Z,0.30
2022-12-28T05:02:20.416Z,0.33
2022-12-28T05:03:20.311Z,0.28
2022-12-28T05:04:20.294Z,0.33
2022-12-28T05:05:20.277Z,0.26
2022-12-28T05:06:20.260Z,0.35
2022-12-28T05:07:20.247Z,0.35
2022-12-28T05:08:20.235Z,0.34
2022-12-28T05:09:20.245Z,0.37
2022-12-28T05:10:20.212Z,0.23
2022-12-28T05:11:20.202Z,0.28
2022-12-28T05:12:20.188Z,0.38
2022-12-28T05:13:20.167Z,0.40
2022-12-28T05:14:20.158Z,0.34
2022-12-28T05:15:20.145Z,0.31
2022-12-28T05:16:20.228Z,0.30
2022-12-28T05:17:20.120Z,0.23
2022-12-28T05:18:20.103Z,0.37
2022-12-28T05:19:20.092Z,0.33
2022-12-28T05:20:20.079Z,0.20
2022-12-28T05:21:20.061Z,0.22
2022-12-28T05:22:20.049Z,0.28
2022-12-28T05:23:20.045Z,0.26
2022-12-28T05:24:20.028Z,0.28
2022-12-28T05:25:20.044Z,0.34
2022-12-28T05:26:19.999Z,0.37
2022-12-28T05:27:19.983Z,0.31
2022-12-28T05:28:19.971Z,0.40
2022-12-28T05:29:19.960Z,0.28
2022-12-28T05:30:19.958Z,0.30
2022-12-28T05:31:19.999Z,0.37
2022-12-28T05:32:19.917Z,0.38
2022-12-28T05:33:19.903Z,0.37
2022-12-28T05:34:19.889Z,0.26
2022-12-28T05:35:19.875Z,0.34
2022-12-28T05:36:19.861Z,0.34
2022-12-28T05:37:22.130Z,0.40
2022-12-28T05:38:19.854Z,0.35
2022-12-28T05:39:19.825Z,0.28
2022-12-28T05:40:19.810Z,0.38
2022-12-28T05:41:19.851Z,0.48
2022-12-28T05:42:19.790Z,0.48
2022-12-28T05:43:19.771Z,0.43
2022-12-28T05:44:19.760Z,0.40
2022-12-28T05:45:19.751Z,0.41
2022-12-28T05:46:19.806Z,0.43
2022-12-28T05:47:19.719Z,0.41
2022-12-28T05:48:19.703Z,0.51
2022-12-28T05:49:19.697Z,0.56
2022-12-28T05:50:19.676Z,0.38
2022-12-28T05:51:19.668Z,0.49
2022-12-28T05:52:19.679Z,0.41
2022-12-28T05:53:19.640Z,0.56
2022-12-28T05:54:19.627Z,0.45
2022-12-28T05:55:19.615Z,0.48
2022-12-28T05:56:19.597Z,0.49
2022-12-28T05:57:19.618Z,0.49
2022-12-28T05:58:19.572Z,0.45
2022-12-28T05:59:19.567Z,0.43
2022-12-28T06:00:19.545Z,0.53
2022-12-28T06:01:19.570Z,0.49
2022-12-28T06:02:24.529Z,0.49
2022-12-28T06:03:19.571Z,0.35
2022-12-28T06:04:19.493Z,0.38
2022-12-28T06:05:19.489Z,0.53
2022-12-28T06:06:19.466Z,0.48
2022-12-28T06:07:19.454Z,0.41
2022-12-28T06:08:22.648Z,0.51
2022-12-28T06:09:19.429Z,0.41
2022-12-28T06:10:19.415Z,0.43
2022-12-28T06:11:19.408Z,0.59
2022-12-28T06:12:19.395Z,0.40
2022-12-28T06:13:19.404Z,0.52
2022-12-28T06:14:19.363Z,0.53
2022-12-28T06:15:19.349Z,0.51
2022-12-28T06:16:19.335Z,0.53
2022-12-28T06:17:19.324Z,0.51
2022-12-28T06:18:19.308Z,0.52
2022-12-28T06:19:19.297Z,0.52
2022-12-28T06:20:19.281Z,0.49
2022-12-28T06:21:19.274Z,0.53
2022-12-28T06:22:19.256Z,0.48
2022-12-28T06:23:19.245Z,0.57
2022-12-28T06:24:19.231Z,0.70
2022-12-28T06:25:19.217Z,0.51
2022-12-28T06:26:19.206Z,0.63
2022-12-28T06:27:19.190Z,0.56
2022-12-28T06:28:19.190Z,0.59
2022-12-28T06:29:19.195Z,0.67
2022-12-28T06:30:19.182Z,0.44
2022-12-28T06:31:19.247Z,0.60
2022-12-28T06:32:19.125Z,0.59
2022-12-28T06:33:19.110Z,0.48
2022-12-28T06:34:19.097Z,0.49
2022-12-28T06:35:19.086Z,0.44
2022-12-28T06:36:20.597Z,0.49
2022-12-28T06:37:19.060Z,0.45
2022-12-28T06:38:19.046Z,0.44
2022-12-28T06:39:19.036Z,0.53
2022-12-28T06:40:21.890Z,0.51
2022-12-28T06:41:20.049Z,0.56
2022-12-28T06:42:18.995Z,0.45
2022-12-28T06:43:18.979Z,0.45
2022-12-28T06:44:18.967Z,0.43
2022-12-28T06:45:18.976Z,0.43
2022-12-28T06:46:18.953Z,0.43
2022-12-28T06:47:18.926Z,0.43
2022-12-28T06:48:18.919Z,0.41
2022-12-28T06:49:18.907Z,0.44
2022-12-28T06:50:18.887Z,0.34
2022-12-28T06:51:18.876Z,0.44
2022-12-28T06:52:18.863Z,0.48
2022-12-28T06:53:18.850Z,0.37
2022-12-28T06:54:18.837Z,0.33
2022-12-28T06:55:18.836Z,0.41
2022-12-28T06:56:18.824Z,0.49
2022-12-28T06:57:18.795Z,0.40
2022-12-28T06:58:18.781Z,0.33
2022-12-28T06:59:18.771Z,0.44
2022-12-28T07:00:18.758Z,0.37
2022-12-28T07:01:18.895Z,0.37
2022-12-28T07:02:18.848Z,0.34
2022-12-28T07:03:18.744Z,0.22
2022-12-28T07:04:18.705Z,0.34
2022-12-28T07:05:18.695Z,0.43
2022-12-28T07:06:18.675Z,0.22
2022-12-28T07:07:18.666Z,0.33
2022-12-28T07:08:18.655Z,0.43
2022-12-28T07:09:18.645Z,0.26
2022-12-28T07:10:18.623Z,0.41
2022-12-28T07:11:18.612Z,0.31
2022-12-28T07:12:18.595Z,0.31
2022-12-28T07:13:21.882Z,0.30
2022-12-28T07:14:19.594Z,0.40
2022-12-28T07:15:18.563Z,0.33
2022-12-28T07:16:18.594Z,0.35
2022-12-28T07:17:18.559Z,0.34
2022-12-28T07:18:18.518Z,0.43
2022-12-28T07:19:18.502Z,0.40
2022-12-28T07:20:18.487Z,0.48
2022-12-28T07:21:18.483Z,0.37
2022-12-28T07:22:18.474Z,0.45
2022-12-28T07:23:18.451Z,0.53
2022-12-28T07:24:18.437Z,0.48
2022-12-28T07:25:18.424Z,0.37
2022-12-28T07:26:18.413Z,0.40
2022-12-28T07:27:18.395Z,0.52
2022-12-28T07:28:18.384Z,0.57
2022-12-28T07:29:18.371Z,0.59
2022-12-28T07:30:18.360Z,0.62
2022-12-28T07:31:18.460Z,0.56
2022-12-28T07:32:18.331Z,0.64
2022-12-28T07:33:18.345Z,0.62
2022-12-28T07:34:18.308Z,0.62
2022-12-28T07:35:18.292Z,0.67
2022-12-28T07:36:18.288Z,0.71
2022-12-28T07:37:18.267Z,0.64
2022-12-28T07:38:21.541Z,0.72
2022-12-28T07:39:18.239Z,0.74
2022-12-28T07:40:18.224Z,0.67
2022-12-28T07:41:18.212Z,0.71
2022-12-28T07:42:18.193Z,0.64
2022-12-28T07:43:18.188Z,0.70
2022-12-28T07:44:18.169Z,0.78
2022-12-28T07:45:18.159Z,0.81
2022-12-28T07:46:18.213Z,0.70
2022-12-28T07:47:18.136Z,0.84
2022-12-28T07:48:18.132Z,0.68
2022-12-28T07:49:18.125Z,0.74
2022-12-28T07:50:18.091Z,0.81
2022-12-28T07:51:18.082Z,0.78
2022-12-28T07:52:18.066Z,0.77
2022-12-28T07:53:22.073Z,0.80
2022-12-28T07:54:18.048Z,0.89
2022-12-28T07:55:18.024Z,0.86
2022-12-28T07:56:18.018Z,0.81
2022-12-28T07:57:18.001Z,0.82
2022-12-28T07:58:17.989Z,0.95
2022-12-28T07:59:17.990Z,0.78
2022-12-28T08:00:17.957Z,0.89
2022-12-28T08:01:18.176Z,0.86
2022-12-28T08:02:18.105Z,0.95
2022-12-28T08:03:17.991Z,0.88
2022-12-28T08:04:17.913Z,0.90
2022-12-28T08:05:17.953Z,0.93
2022-12-28T08:06:17.884Z,0.93
2022-12-28T08:07:17.871Z,0.98
2022-12-28T08:08:17.852Z,0.98
2022-12-28T08:09:17.866Z,1.04
2022-12-28T08:10:17.829Z,0.95
2022-12-28T08:11:17.820Z,0.86
2022-12-28T08:12:17.799Z,0.92
2022-12-28T08:13:17.794Z,1.04
2022-12-28T08:14:17.784Z,0.99
2022-12-28T08:15:17.772Z,1.00
2022-12-28T08:16:17.805Z,0.93
2022-12-28T08:17:21.193Z,1.08
2022-12-28T08:18:17.733Z,1.10
2022-12-28T08:19:17.731Z,1.06
2022-12-28T08:20:17.711Z,0.95
2022-12-28T08:21:17.743Z,1.10
2022-12-28T08:22:17.683Z,1.07
2022-12-28T08:23:17.669Z,1.02
2022-12-28T08:24:17.706Z,1.14
2022-12-28T08:25:17.655Z,1.10
2022-12-28T08:26:17.636Z,1.17
2022-12-28T08:27:17.626Z,1.16
2022-12-28T08:28:17.600Z,1.20
2022-12-28T08:29:17.577Z,1.16
2022-12-28T08:30:17.595Z,1.14
2022-12-28T08:31:17.616Z,1.16
2022-12-28T08:32:17.549Z,1.26
2022-12-28T08:33:17.536Z,1.14
2022-12-28T08:34:17.525Z,1.26
2022-12-28T08:35:17.510Z,1.29
2022-12-28T08:36:17.499Z,1.32
2022-12-28T08:37:17.505Z,1.17
2022-12-28T08:38:17.461Z,1.21
2022-12-28T08:39:17.450Z,1.17
2022-12-28T08:40:17.440Z,1.29
2022-12-28T08:41:17.422Z,1.36
2022-12-28T08:42:17.415Z,1.36
2022-12-28T08:43:17.404Z,1.32
2022-12-28T08:44:17.390Z,1.42
2022-12-28T08:45:17.379Z,1.31
2022-12-28T08:46:17.541Z,1.35
2022-12-28T08:47:17.433Z,1.39
2022-12-28T08:48:17.330Z,1.35
2022-12-28T08:49:17.317Z,1.49
2022-12-28T08:50:20.039Z,1.47
2022-12-28T08:51:17.287Z,1.39
2022-12-28T08:52:17.282Z,1.50
2022-12-28T08:53:17.292Z,1.54
2022-12-28T08:54:17.252Z,1.56
2022-12-28T08:55:17.240Z,1.50
2022-12-28T08:56:17.223Z,1.50
2022-12-28T08:57:17.205Z,1.54
2022-12-28T08:58:17.192Z,1.67
2022-12-28T08:59:17.184Z,1.61
2022-12-28T09:00:17.178Z,1.74
2022-12-28T09:01:17.315Z,1.68
2022-12-28T09:02:17.293Z,1.85
2022-12-28T09:03:17.293Z,1.89
2022-12-28T09:04:17.157Z,2.00
2022-12-28T09:05:17.097Z,1.88
2022-12-28T09:06:17.087Z,1.88
2022-12-28T09:07:17.072Z,1.92
2022-12-28T09:08:17.055Z,1.95
2022-12-28T09:09:17.077Z,2.04
2022-12-28T09:10:17.053Z,2.05
2022-12-28T09:11:17.018Z,2.04
2022-12-28T09:12:17.005Z,2.15
2022-12-28T09:13:16.998Z,2.14
2022-12-28T09:14:24.433Z,2.07
2022-12-28T09:15:18.005Z,2.15
2022-12-28T09:16:17.012Z,2.27
2022-12-28T09:17:16.945Z,2.14
2022-12-28T09:18:16.923Z,2.23
2022-12-28T09:19:16.921Z,2.36
2022-12-28T09:20:16.897Z,2.29
2022-12-28T09:21:16.887Z,2.33
2022-12-28T09:22:16.870Z,2.26
2022-12-28T09:23:16.860Z,2.38
2022-12-28T09:24:16.895Z,2.40
2022-12-28T09:25:16.860Z,2.45
2022-12-28T09:26:16.821Z,2.51
2022-12-28T09:27:16.808Z,2.58
2022-12-28T09:28:16.797Z,2.58
2022-12-28T09:29:16.782Z,2.51
2022-12-28T09:30:16.771Z,2.62
2022-12-28T09:31:16.790Z,2.56
2022-12-28T09:32:16.738Z,2.50
2022-12-28T09:33:16.732Z,2.61
2022-12-28T09:34:36.076Z,2.56
2022-12-28T09:35:17.723Z,2.69
2022-12-28T09:36:16.687Z,2.66
2022-12-28T09:37:16.679Z,2.62
2022-12-28T09:38:16.659Z,2.84
2022-12-28T09:39:16.739Z,2.79
2022-12-28T09:40:16.635Z,2.79
2022-12-28T09:41:16.643Z,2.95
2022-12-28T09:42:16.635Z,2.95
2022-12-28T09:43:16.601Z,2.97
2022-12-28T09:44:16.578Z,3.05
2022-12-28T09:45:16.579Z,3.08
2022-12-28T09:46:16.579Z,3.15
2022-12-28T09:47:16.549Z,3.23
2022-12-28T09:48:16.536Z,3.16
2022-12-28T09:49:16.513Z,3.20
2022-12-28T09:50:16.535Z,3.20
2022-12-28T09:51:16.488Z,3.30
2022-12-28T09:52:16.470Z,3.17
2022-12-28T09:53:16.461Z,3.41
2022-12-28T09:54:16.452Z,3.39
2022-12-28T09:55:16.432Z,3.35
2022-12-28T09:56:16.430Z,3.52
2022-12-28T09:57:16.448Z,3.46
2022-12-28T09:58:16.410Z,3.56
2022-12-28T09:59:16.588Z,3.57
2022-12-28T10:00:16.967Z,3.50
2022-12-28T10:01:16.455Z,3.60
2022-12-28T10:02:16.417Z,3.74
2022-12-28T10:03:16.372Z,3.67
2022-12-28T10:04:16.312Z,3.67
2022-12-28T10:05:16.304Z,3.75
2022-12-28T10:06:16.302Z,3.80
2022-12-28T10:07:16.274Z,3.77
2022-12-28T10:08:16.269Z,3.88
2022-12-28T10:09:16.248Z,3.90
2022-12-28T10:10:16.235Z,3.81
2022-12-28T10:11:16.223Z,4.02
2022-12-28T10:12:16.215Z,3.95
2022-12-28T10:13:45.659Z,4.00
2022-12-28T10:14:17.202Z,4.17
2022-12-28T10:15:16.176Z,4.16
2022-12-28T10:16:16.204Z,4.29
2022-12-28T10:17:16.143Z,4.42
2022-12-28T10:18:16.132Z,4.35
2022-12-28T10:19:16.143Z,4.44
2022-12-28T10:20:16.105Z,4.47
2022-12-28T10:21:16.094Z,4.61
2022-12-28T10:22:16.079Z,4.67
2022-12-28T10:23:16.067Z,4.69
2022-12-28T10:24:32.679Z,4.80
2022-12-28T10:25:17.129Z,4.83
2022-12-28T10:26:16.027Z,5.02
2022-12-28T10:27:16.028Z,4.99
2022-12-28T10:28:15.999Z,5.08
2022-12-28T10:29:16.003Z,5.23
2022-12-28T10:30:15.978Z,5.41
2022-12-28T10:31:16.029Z,5.38
2022-12-28T10:32:15.943Z,5.40
2022-12-28T10:33:15.946Z,5.49
2022-12-28T10:34:15.937Z,5.59
2022-12-28T10:35:15.914Z,5.51
2022-12-28T10:36:16.164Z,5.74
2022-12-28T10:37:16.004Z,5.77
2022-12-28T10:38:15.867Z,5.88
2022-12-28T10:39:15.852Z,5.87
2022-12-28T10:40:15.864Z,5.96
2022-12-28T10:41:15.848Z,6.14
2022-12-28T10:42:15.815Z,6.24
2022-12-28T10:43:15.803Z,6.30
2022-12-28T10:44:39.453Z,6.43
2022-12-28T10:45:16.906Z,6.42
2022-12-28T10:46:15.789Z,6.48
2022-12-28T10:47:15.743Z,6.64
2022-12-28T10:48:16.016Z,6.65
2022-12-28T10:49:15.998Z,6.71
2022-12-28T10:51:15.693Z,6.83
2022-12-28T10:52:15.689Z,6.75
2022-12-28T10:53:15.676Z,6.91
2022-12-28T10:54:15.650Z,7.00
2022-12-28T10:55:16.657Z,6.96
2022-12-28T10:56:17.437Z,6.89
2022-12-28T10:57:15.614Z,7.05
2022-12-28T10:58:33.372Z,7.18
2022-12-28T10:59:16.607Z,7.30
2022-12-28T11:00:15.573Z,7.23
2022-12-28T11:01:15.801Z,7.18
2022-12-28T11:02:15.741Z,7.27
2022-12-28T11:03:15.601Z,7.26
2022-12-28T11:04:15.530Z,7.15
2022-12-28T11:05:15.502Z,7.26
2022-12-28T11:06:15.490Z,7.29
2022-12-28T11:07:15.473Z,7.37
2022-12-28T11:08:15.472Z,7.37
2022-12-28T11:09:15.472Z,7.47
2022-12-28T11:10:15.460Z,7.57
2022-12-28T11:11:15.419Z,7.62
2022-12-28T11:12:15.408Z,7.57
2022-12-28T11:13:21.445Z,7.74
2022-12-28T11:14:16.407Z,7.51
2022-12-28T11:15:15.383Z,7.51
2022-12-28T11:16:15.394Z,7.67
2022-12-28T11:17:15.388Z,7.67
2022-12-28T11:18:15.331Z,7.85
2022-12-28T11:19:15.315Z,7.84
2022-12-28T11:20:15.317Z,7.79
2022-12-28T11:21:15.304Z,7.89
2022-12-28T11:22:15.281Z,8.02
2022-12-28T11:23:15.263Z,7.95
2022-12-28T11:24:15.261Z,8.10
2022-12-28T11:25:15.236Z,8.18
2022-12-28T11:26:15.228Z,8.25
2022-12-28T11:27:15.227Z,8.24
2022-12-28T11:28:15.200Z,8.45
2022-12-28T11:29:15.196Z,8.49
2022-12-28T11:30:17.649Z,8.40
2022-12-28T11:31:15.181Z,8.61
2022-12-28T11:32:15.145Z,8.63
2022-12-28T11:33:15.148Z,8.60
2022-12-28T11:34:15.124Z,8.67
2022-12-28T11:35:15.108Z,8.86
2022-12-28T11:36:15.090Z,8.68
2022-12-28T11:37:15.081Z,8.71
2022-12-28T11:38:15.061Z,8.76
2022-12-28T11:39:15.048Z,8.85
2022-12-28T11:40:15.046Z,8.98
2022-12-28T11:41:15.018Z,8.97
2022-12-28T11:42:40.413Z,9.16
2022-12-28T11:43:16.016Z,9.37
2022-12-28T11:44:14.981Z,9.60
2022-12-28T11:45:14.962Z,9.71
2022-12-28T11:46:14.970Z,9.80
2022-12-28T11:47:14.980Z,10.14
2022-12-28T11:48:14.973Z,10.65
2022-12-28T11:49:14.931Z,11.51
2022-12-28T11:50:14.975Z,11.66
2022-12-28T11:51:14.885Z,11.36
2022-12-28T11:52:14.871Z,11.06
2022-12-28T11:53:14.859Z,10.88
2022-12-28T11:54:14.890Z,10.78
2022-12-28T11:55:14.914Z,10.75
2022-12-28T11:56:14.867Z,10.62
2022-12-28T11:57:14.865Z,10.80
2022-12-28T11:58:14.845Z,11.03
2022-12-28T11:59:14.831Z,11.19
2022-12-28T12:00:20.099Z,10.90
2022-12-28T12:01:16.268Z,10.88
2022-12-28T12:02:14.764Z,10.90
2022-12-28T12:03:14.829Z,10.81
2022-12-28T12:04:14.764Z,10.78
2022-12-28T12:05:14.774Z,10.70
2022-12-28T12:06:14.732Z,10.76
2022-12-28T12:07:14.744Z,10.80
2022-12-28T12:08:14.732Z,10.93
2022-12-28T12:09:14.693Z,10.94
2022-12-28T12:10:14.777Z,11.03
2022-12-28T12:11:14.703Z,11.12
2022-12-28T12:12:17.946Z,11.12
2022-12-28T12:13:14.649Z,10.94
2022-12-28T12:14:14.622Z,10.86
2022-12-28T12:15:14.612Z,10.65
2022-12-28T12:16:14.677Z,10.52
2022-12-28T12:17:14.591Z,10.34
2022-12-28T12:18:14.606Z,10.38
2022-12-28T12:19:14.560Z,10.24
2022-12-28T12:20:14.567Z,9.98
2022-12-28T12:21:16.118Z,10.06
2022-12-28T12:22:14.537Z,10.20
2022-12-28T12:23:14.455Z,9.98
2022-12-28T12:24:14.443Z,10.09
2022-12-28T12:25:14.430Z,10.18
2022-12-28T12:26:14.417Z,10.20
2022-12-28T12:27:14.402Z,10.73
2022-12-28T12:28:14.390Z,11.11
2022-12-28T12:29:14.375Z,11.24
2022-12-28T12:30:14.366Z,11.60
2022-12-28T12:31:14.406Z,12.54
2022-12-28T12:32:14.343Z,12.73
2022-12-28T12:33:14.321Z,12.87
2022-12-28T12:34:19.293Z,12.70
2022-12-28T12:35:14.328Z,12.33
2022-12-28T12:36:14.339Z,12.03
2022-12-28T12:37:14.297Z,11.72
2022-12-28T12:38:14.267Z,11.84
2022-12-28T12:39:14.244Z,12.40
2022-12-28T12:40:14.236Z,13.53
2022-12-28T12:41:14.217Z,14.49
2022-12-28T12:42:14.211Z,14.09
2022-12-28T12:43:14.195Z,13.90
2022-12-28T12:44:14.198Z,13.69
2022-12-28T12:45:14.184Z,12.96
2022-12-28T12:46:14.230Z,12.98
2022-12-28T12:47:14.154Z,12.89
2022-12-28T12:48:14.131Z,13.17
2022-12-28T12:49:14.117Z,13.69
2022-12-28T12:50:14.097Z,14.34
2022-12-28T12:51:14.079Z,14.20
2022-12-28T12:52:14.070Z,14.29
2022-12-28T12:53:14.073Z,13.94
2022-12-28T12:54:14.046Z,13.81
2022-12-28T12:55:14.037Z,13.32
2022-12-28T12:56:14.015Z,12.56
2022-12-28T12:57:14.012Z,12.21
2022-12-28T12:58:13.989Z,11.96
2022-12-28T12:59:13.973Z,11.66
2022-12-28T13:00:13.965Z,11.31
2022-12-28T13:01:13.994Z,11.08
2022-12-28T13:02:14.193Z,10.94
2022-12-28T13:03:13.936Z,10.78
2022-12-28T13:04:13.909Z,10.66
2022-12-28T13:05:13.893Z,10.55
2022-12-28T13:06:13.887Z,10.47
2022-12-28T13:07:13.873Z,10.38
2022-12-28T13:08:13.857Z,10.39
2022-12-28T13:09:13.873Z,10.24
2022-12-28T13:10:13.831Z,10.25